createdAt,value
2018-05-23T00:00:46.505Z,18.43
2018-05-23T00:01:46.457Z,18.40
2018-05-23T00:02:46.389Z,18.33
2018-05-23T00:03:46.345Z,18.34
2018-05-23T00:04:46.308Z,18.34
2018-05-23T00:05:46.445Z,18.41
2018-05-23T00:06:46.206Z,18.38
2018-05-23T00:07:46.163Z,18.47
2018-05-23T00:08:46.112Z,18.50
2018-05-23T00:09:46.075Z,18.37
2018-05-23T00:10:46.014Z,18.45
2018-05-23T00:11:46.159Z,18.34
2018-05-23T00:12:45.910Z,18.40
2018-05-23T00:13:45.865Z,18.40
2018-05-23T00:14:45.838Z,18.40
2018-05-23T00:15:45.773Z,18.26
2018-05-23T00:16:45.736Z,18.29
2018-05-23T00:17:45.897Z,18.23
2018-05-23T00:18:45.646Z,18.20
2018-05-23T00:19:45.614Z,18.15
2018-05-23T00:20:45.558Z,18.22
2018-05-23T00:21:45.521Z,18.11
2018-05-23T00:22:45.451Z,17.97
2018-05-23T00:23:45.623Z,18.04
2018-05-23T00:24:45.367Z,18.07
2018-05-23T00:25:45.319Z,18.13
2018-05-23T00:26:45.494Z,18.07
2018-05-23T00:27:45.229Z,18.00
2018-05-23T00:28:45.173Z,18.13
2018-05-23T00:29:45.366Z,18.11
2018-05-23T00:30:45.092Z,18.23
2018-05-23T00:31:45.065Z,18.16
2018-05-23T00:32:45.027Z,18.07
2018-05-23T00:33:44.955Z,18.13
2018-05-23T00:34:45.115Z,18.01
2018-05-23T00:35:44.853Z,18.31
2018-05-23T00:36:44.840Z,18.15
2018-05-23T00:37:44.774Z,18.10
2018-05-23T00:38:44.707Z,18.00
2018-05-23T00:39:44.673Z,18.16
2018-05-23T00:40:44.823Z,18.00
2018-05-23T00:41:44.620Z,18.04
2018-05-23T00:42:44.553Z,18.19
2018-05-23T00:43:44.503Z,17.97
2018-05-23T00:44:44.456Z,18.04
2018-05-23T00:45:44.388Z,17.97
2018-05-23T00:46:44.564Z,17.98
2018-05-23T00:47:44.532Z,18.03
2018-05-23T00:48:44.246Z,17.98
2018-05-23T00:49:44.750Z,17.97
2018-05-23T00:50:44.163Z,18.04
2018-05-23T00:51:44.147Z,17.97
2018-05-23T00:52:44.299Z,18.04
2018-05-23T00:53:44.042Z,18.01
2018-05-23T00:54:43.980Z,18.01
2018-05-23T00:55:43.949Z,18.00
2018-05-23T00:56:43.893Z,18.08
2018-05-23T00:57:43.839Z,18.05
2018-05-23T00:58:43.983Z,17.97
2018-05-23T00:59:43.775Z,18.04
2018-05-23T01:00:43.712Z,18.03
2018-05-23T01:01:43.656Z,18.04
2018-05-23T01:02:43.628Z,18.11
2018-05-23T01:03:43.568Z,18.10
2018-05-23T01:04:43.723Z,18.08
2018-05-23T01:05:43.468Z,18.04
2018-05-23T01:06:43.616Z,18.04
2018-05-23T01:07:43.369Z,18.05
2018-05-23T01:08:43.359Z,18.05
2018-05-23T01:09:43.285Z,18.03
2018-05-23T01:10:43.439Z,18.00
2018-05-23T01:11:43.234Z,17.92
2018-05-23T01:12:43.149Z,17.89
2018-05-23T01:13:43.090Z,17.83
2018-05-23T01:14:43.069Z,17.83
2018-05-23T01:15:43.015Z,17.95
2018-05-23T01:16:43.182Z,17.95
2018-05-23T01:17:42.929Z,18.00
2018-05-23T01:18:42.873Z,18.01
2018-05-23T01:19:42.859Z,17.94
2018-05-23T01:20:42.807Z,17.92
2018-05-23T01:21:42.746Z,17.92
2018-05-23T01:22:42.888Z,18.04
2018-05-23T01:23:42.636Z,17.95
2018-05-23T01:24:42.795Z,18.07
2018-05-23T01:25:42.565Z,18.05
2018-05-23T01:26:42.502Z,17.89
2018-05-23T01:27:42.464Z,17.87
2018-05-23T01:28:42.590Z,17.92
2018-05-23T01:29:42.347Z,17.92
2018-05-23T01:30:42.339Z,17.71
2018-05-23T01:31:42.277Z,17.65
2018-05-23T01:32:42.216Z,17.70
2018-05-23T01:33:42.197Z,17.60
2018-05-23T01:34:42.347Z,17.67
2018-05-23T01:35:42.080Z,17.63
2018-05-23T01:36:42.033Z,17.63
2018-05-23T01:37:41.978Z,17.64
2018-05-23T01:38:41.955Z,17.46
2018-05-23T01:39:42.106Z,17.64
2018-05-23T01:40:42.079Z,17.51
2018-05-23T01:41:41.808Z,17.48
2018-05-23T01:42:41.741Z,17.52
2018-05-23T01:43:41.721Z,17.31
2018-05-23T01:44:41.663Z,17.33
2018-05-23T01:45:41.818Z,17.39
2018-05-23T01:46:41.565Z,17.49
2018-05-23T01:47:41.514Z,17.51
2018-05-23T01:48:41.508Z,17.59
2018-05-23T01:49:41.449Z,17.54
2018-05-23T01:50:41.384Z,17.57
2018-05-23T01:51:41.549Z,17.67
2018-05-23T01:52:41.289Z,17.57
2018-05-23T01:53:41.268Z,17.68
2018-05-23T01:54:41.239Z,17.72
2018-05-23T01:55:41.140Z,17.72
2018-05-23T01:56:41.111Z,17.60
2018-05-23T01:57:41.256Z,17.59
2018-05-23T01:58:41.014Z,17.57
2018-05-23T01:59:40.971Z,17.52
2018-05-23T02:00:40.934Z,17.42
2018-05-23T02:01:40.888Z,17.39
2018-05-23T02:02:40.835Z,17.36
2018-05-23T02:03:41.005Z,17.34
2018-05-23T02:04:40.727Z,17.27
2018-05-23T02:05:40.709Z,17.29
2018-05-23T02:06:40.666Z,17.27
2018-05-23T02:07:40.617Z,17.24
2018-05-23T02:08:40.572Z,17.27
2018-05-23T02:09:40.891Z,17.41
2018-05-23T02:10:40.440Z,17.42
2018-05-23T02:11:40.425Z,17.36
2018-05-23T02:12:40.380Z,17.41
2018-05-23T02:13:40.325Z,17.42
2018-05-23T02:14:40.275Z,17.46
2018-05-23T02:15:40.429Z,17.51
2018-05-23T02:16:40.203Z,17.56
2018-05-23T02:17:40.131Z,17.52
2018-05-23T02:18:40.093Z,17.44
2018-05-23T02:19:40.022Z,17.36
2018-05-23T02:20:40.010Z,17.41
2018-05-23T02:21:40.146Z,17.44
2018-05-23T02:22:39.888Z,17.38
2018-05-23T02:23:39.854Z,17.46
2018-05-23T02:24:39.785Z,17.39
2018-05-23T02:25:39.757Z,17.36
2018-05-23T02:26:39.714Z,17.27
2018-05-23T02:27:39.885Z,17.26
2018-05-23T02:28:39.639Z,17.31
2018-05-23T02:29:39.585Z,17.39
2018-05-23T02:30:39.534Z,17.39
2018-05-23T02:31:39.463Z,17.27
2018-05-23T02:32:39.415Z,17.30
2018-05-23T02:33:39.591Z,17.38
2018-05-23T02:34:39.528Z,17.30
2018-05-23T02:35:39.507Z,17.31
2018-05-23T02:36:39.277Z,17.14
2018-05-23T02:37:39.193Z,17.12
2018-05-23T02:38:39.141Z,17.09
2018-05-23T02:39:39.306Z,17.08
2018-05-23T02:40:39.057Z,17.08
2018-05-23T02:41:39.018Z,17.01
2018-05-23T02:42:38.962Z,17.06
2018-05-23T02:43:38.940Z,17.08
2018-05-23T02:44:38.888Z,17.15
2018-05-23T02:45:39.016Z,17.12
2018-05-23T02:46:38.803Z,17.12
2018-05-23T02:47:38.735Z,17.24
2018-05-23T02:48:38.691Z,17.15
2018-05-23T02:49:38.658Z,17.12
2018-05-23T02:50:38.605Z,17.08
2018-05-23T02:51:38.739Z,16.99
2018-05-23T02:52:38.510Z,17.11
2018-05-23T02:53:38.457Z,17.22
2018-05-23T02:54:38.425Z,17.24
2018-05-23T02:55:38.354Z,17.29
2018-05-23T02:56:38.321Z,17.31
2018-05-23T02:57:38.468Z,17.38
2018-05-23T02:58:38.227Z,17.33
2018-05-23T02:59:38.170Z,17.23
2018-05-23T03:00:38.107Z,17.23
2018-05-23T03:01:38.100Z,17.29
2018-05-23T03:02:38.034Z,17.30
2018-05-23T03:03:38.190Z,17.29
2018-05-23T03:04:37.937Z,17.36
2018-05-23T03:05:37.912Z,17.30
2018-05-23T03:06:37.867Z,17.22
2018-05-23T03:07:37.777Z,17.29
2018-05-23T03:08:37.786Z,17.11
2018-05-23T03:09:37.898Z,17.08
2018-05-23T03:10:37.679Z,17.09
2018-05-23T03:11:37.608Z,17.02
2018-05-23T03:12:37.557Z,16.91
2018-05-23T03:13:37.529Z,16.91
2018-05-23T03:14:37.464Z,16.90
2018-05-23T03:15:37.629Z,17.01
2018-05-23T03:16:37.400Z,17.06
2018-05-23T03:17:37.349Z,17.02
2018-05-23T03:18:37.276Z,16.97
2018-05-23T03:19:37.218Z,16.76
2018-05-23T03:20:37.198Z,16.89
2018-05-23T03:21:37.332Z,16.87
2018-05-23T03:22:37.081Z,16.89
2018-05-23T03:23:37.057Z,16.87
2018-05-23T03:24:36.997Z,16.71
2018-05-23T03:25:36.965Z,16.81
2018-05-23T03:26:36.903Z,16.89
2018-05-23T03:27:37.052Z,16.86
2018-05-23T03:28:36.800Z,16.89
2018-05-23T03:29:36.790Z,16.90
2018-05-23T03:30:36.724Z,16.96
2018-05-23T03:31:36.682Z,17.02
2018-05-23T03:32:36.648Z,16.99
2018-05-23T03:33:36.805Z,16.91
2018-05-23T03:34:36.536Z,17.04
2018-05-23T03:35:36.473Z,17.01
2018-05-23T03:36:36.466Z,17.02
2018-05-23T03:37:36.391Z,17.04
2018-05-23T03:38:36.341Z,16.91
2018-05-23T03:39:36.514Z,16.94
2018-05-23T03:40:36.238Z,16.90
2018-05-23T03:41:36.199Z,16.71
2018-05-23T03:42:36.187Z,16.84
2018-05-23T03:43:36.135Z,16.75
2018-05-23T03:44:36.068Z,16.64
2018-05-23T03:45:36.241Z,16.60
2018-05-23T03:46:36.003Z,16.56
2018-05-23T03:47:35.921Z,16.47
2018-05-23T03:48:35.889Z,16.39
2018-05-23T03:49:35.841Z,16.47
2018-05-23T03:50:35.777Z,16.46
2018-05-23T03:51:35.934Z,16.50
2018-05-23T03:52:35.891Z,16.46
2018-05-23T03:53:35.666Z,16.61
2018-05-23T03:54:35.589Z,16.64
2018-05-23T03:55:35.538Z,16.66
2018-05-23T03:56:35.498Z,16.72
2018-05-23T03:57:35.657Z,16.75
2018-05-23T03:58:35.421Z,16.81
2018-05-23T03:59:35.374Z,16.84
2018-05-23T04:00:35.324Z,16.94
2018-05-23T04:01:35.276Z,16.96
2018-05-23T04:02:35.222Z,16.94
2018-05-23T04:03:35.588Z,16.87
2018-05-23T04:04:35.124Z,16.83
2018-05-23T04:05:35.088Z,16.72
2018-05-23T04:06:35.037Z,16.65
2018-05-23T04:07:34.983Z,16.68
2018-05-23T04:08:34.942Z,16.58
2018-05-23T04:09:35.091Z,16.57
2018-05-23T04:10:34.856Z,16.60
2018-05-23T04:11:34.818Z,16.60
2018-05-23T04:12:34.749Z,16.61
2018-05-23T04:13:34.721Z,16.57
2018-05-23T04:14:34.642Z,16.58
2018-05-23T04:15:34.829Z,16.60
2018-05-23T04:16:34.565Z,16.56
2018-05-23T04:17:34.513Z,16.61
2018-05-23T04:18:34.490Z,16.64
2018-05-23T04:19:34.458Z,16.71
2018-05-23T04:20:34.386Z,16.61
2018-05-23T04:21:34.609Z,16.51
2018-05-23T04:22:34.287Z,16.46
2018-05-23T04:23:34.252Z,16.50
2018-05-23T04:24:34.188Z,16.49
2018-05-23T04:25:34.138Z,16.50
2018-05-23T04:26:34.103Z,16.50
2018-05-23T04:27:34.246Z,16.42
2018-05-23T04:28:34.006Z,16.43
2018-05-23T04:29:33.960Z,16.51
2018-05-23T04:30:33.929Z,16.64
2018-05-23T04:31:33.861Z,16.61
2018-05-23T04:32:33.810Z,16.53
2018-05-23T04:33:33.964Z,16.51
2018-05-23T04:34:33.708Z,16.43
2018-05-23T04:35:33.670Z,16.47
2018-05-23T04:36:33.635Z,16.65
2018-05-23T04:37:33.606Z,16.69
2018-05-23T04:38:33.522Z,16.71
2018-05-23T04:39:33.678Z,16.76
2018-05-23T04:40:33.460Z,16.78
2018-05-23T04:41:33.399Z,16.86
2018-05-23T04:42:33.332Z,16.79
2018-05-23T04:43:33.291Z,16.90
2018-05-23T04:44:33.258Z,16.91
2018-05-23T04:45:33.397Z,16.84
2018-05-23T04:46:33.183Z,16.89
2018-05-23T04:47:33.092Z,16.84
2018-05-23T04:48:33.059Z,16.94
2018-05-23T04:49:33.019Z,16.91
2018-05-23T04:50:32.982Z,16.91
2018-05-23T04:51:33.113Z,16.97
2018-05-23T04:52:32.858Z,16.96
2018-05-23T04:53:32.844Z,16.93
2018-05-23T04:54:32.762Z,16.81
2018-05-23T04:55:32.749Z,16.79
2018-05-23T04:56:32.684Z,16.72
2018-05-23T04:57:32.853Z,16.68
2018-05-23T04:58:32.583Z,16.65
2018-05-23T04:59:32.548Z,16.50
2018-05-23T05:00:32.491Z,16.47
2018-05-23T05:01:32.463Z,16.47
2018-05-23T05:02:32.413Z,16.42
2018-05-23T05:03:32.542Z,16.43
2018-05-23T05:04:32.301Z,16.36
2018-05-23T05:05:32.274Z,16.31
2018-05-23T05:06:32.204Z,16.13
2018-05-23T05:07:32.157Z,16.21
2018-05-23T05:08:32.122Z,16.33
2018-05-23T05:09:32.299Z,16.29
2018-05-23T05:10:32.009Z,16.24
2018-05-23T05:11:31.985Z,16.31
2018-05-23T05:12:31.946Z,16.35
2018-05-23T05:13:31.898Z,16.39
2018-05-23T05:14:31.844Z,16.28
2018-05-23T05:15:32.018Z,16.49
2018-05-23T05:16:31.762Z,16.50
2018-05-23T05:17:31.719Z,16.51
2018-05-23T05:18:31.674Z,16.50
2018-05-23T05:19:31.612Z,16.43
2018-05-23T05:20:31.560Z,16.42
2018-05-23T05:21:31.725Z,16.49
2018-05-23T05:22:31.456Z,16.43
2018-05-23T05:23:31.424Z,16.32
2018-05-23T05:24:31.397Z,16.28
2018-05-23T05:25:31.334Z,16.15
2018-05-23T05:26:31.288Z,16.01
2018-05-23T05:27:31.445Z,16.00
2018-05-23T05:28:31.193Z,16.08
2018-05-23T05:29:31.128Z,16.04
2018-05-23T05:30:31.083Z,16.12
2018-05-23T05:31:31.031Z,16.15
2018-05-23T05:32:31.005Z,16.17
2018-05-23T05:33:31.170Z,16.15
2018-05-23T05:34:30.897Z,16.28
2018-05-23T05:35:30.886Z,16.23
2018-05-23T05:36:30.786Z,16.23
2018-05-23T05:37:30.738Z,16.28
2018-05-23T05:38:30.738Z,16.26
2018-05-23T05:39:30.855Z,16.21
2018-05-23T05:40:30.730Z,16.17
2018-05-23T05:41:30.593Z,16.24
2018-05-23T05:42:30.517Z,16.24
2018-05-23T05:43:30.483Z,16.32
2018-05-23T05:44:30.436Z,16.36
2018-05-23T05:45:30.578Z,16.41
2018-05-23T05:46:30.315Z,16.39
2018-05-23T05:47:30.287Z,16.24
2018-05-23T05:48:30.253Z,16.29
2018-05-23T05:49:30.197Z,16.28
2018-05-23T05:50:30.127Z,16.29
2018-05-23T05:51:30.310Z,16.24
2018-05-23T05:52:30.059Z,16.04
2018-05-23T05:53:30.026Z,16.09
2018-05-23T05:54:29.971Z,16.02
2018-05-23T05:55:29.908Z,16.01
2018-05-23T05:56:30.066Z,15.88
2018-05-23T05:57:29.796Z,15.84
2018-05-23T05:58:29.762Z,15.75
2018-05-23T05:59:29.731Z,15.95
2018-05-23T06:00:29.683Z,15.92
2018-05-23T06:01:29.635Z,15.92
2018-05-23T06:02:29.776Z,15.97
2018-05-23T06:03:29.549Z,15.95
2018-05-23T06:04:29.497Z,15.94
2018-05-23T06:05:29.440Z,15.98
2018-05-23T06:06:29.403Z,16.00
2018-05-23T06:07:29.347Z,15.88
2018-05-23T06:08:29.482Z,15.88
2018-05-23T06:09:29.275Z,15.84
2018-05-23T06:10:29.192Z,15.90
2018-05-23T06:11:29.182Z,15.90
2018-05-23T06:12:29.129Z,16.01
2018-05-23T06:13:29.053Z,15.88
2018-05-23T06:14:29.212Z,15.83
2018-05-23T06:15:28.989Z,16.01
2018-05-23T06:16:28.913Z,16.13
2018-05-23T06:17:28.869Z,16.16
2018-05-23T06:18:28.825Z,16.26
2018-05-23T06:19:28.755Z,16.16
2018-05-23T06:20:28.938Z,16.16
2018-05-23T06:21:28.673Z,16.29
2018-05-23T06:22:28.644Z,16.24
2018-05-23T06:23:28.567Z,16.24
2018-05-23T06:24:28.538Z,16.15
2018-05-23T06:25:28.507Z,16.05
2018-05-23T06:26:28.654Z,16.02
2018-05-23T06:27:28.413Z,16.05
2018-05-23T06:28:28.334Z,15.97
2018-05-23T06:29:28.286Z,15.91
2018-05-23T06:30:28.420Z,15.94
2018-05-23T06:31:28.214Z,15.82
2018-05-23T06:32:28.353Z,15.82
2018-05-23T06:33:28.110Z,15.86
2018-05-23T06:34:28.050Z,15.94
2018-05-23T06:35:28.001Z,15.88
2018-05-23T06:36:27.969Z,16.02
2018-05-23T06:37:27.925Z,16.01
2018-05-23T06:38:28.096Z,16.00
2018-05-23T06:39:27.844Z,16.05
2018-05-23T06:40:27.775Z,16.01
2018-05-23T06:41:27.733Z,15.95
2018-05-23T06:42:27.713Z,16.02
2018-05-23T06:43:27.636Z,16.04
2018-05-23T06:44:27.777Z,16.04
2018-05-23T06:45:27.531Z,16.00
2018-05-23T06:46:27.512Z,15.90
2018-05-23T06:47:27.458Z,15.82
2018-05-23T06:48:27.411Z,15.73
2018-05-23T06:49:27.371Z,15.84
2018-05-23T06:50:27.493Z,15.79
2018-05-23T06:51:27.275Z,15.73
2018-05-23T06:52:27.226Z,15.77
2018-05-23T06:53:27.167Z,15.77
2018-05-23T06:54:27.141Z,15.68
2018-05-23T06:55:27.088Z,15.80
2018-05-23T06:56:27.240Z,15.76
2018-05-23T06:57:26.992Z,15.77
2018-05-23T06:58:26.929Z,15.76
2018-05-23T06:59:26.912Z,15.72
2018-05-23T07:00:26.850Z,15.72
2018-05-23T07:01:27.003Z,15.70
2018-05-23T07:02:26.747Z,15.70
2018-05-23T07:03:26.709Z,15.68
2018-05-23T07:04:26.650Z,15.59
2018-05-23T07:05:26.596Z,15.51
2018-05-23T07:06:26.551Z,15.47
2018-05-23T07:07:26.713Z,15.54
2018-05-23T07:08:26.504Z,15.42
2018-05-23T07:09:26.412Z,15.44
2018-05-23T07:10:26.366Z,15.47
2018-05-23T07:11:26.340Z,15.43
2018-05-23T07:12:26.273Z,15.47
2018-05-23T07:13:26.446Z,15.57
2018-05-23T07:14:26.191Z,15.51
2018-05-23T07:15:26.122Z,15.59
2018-05-23T07:16:26.086Z,15.61
2018-05-23T07:17:26.043Z,15.55
2018-05-23T07:18:25.994Z,15.65
2018-05-23T07:19:26.159Z,15.68
2018-05-23T07:20:25.919Z,15.67
2018-05-23T07:21:25.840Z,15.64
2018-05-23T07:22:25.818Z,15.68
2018-05-23T07:23:25.790Z,15.75
2018-05-23T07:24:25.709Z,15.73
2018-05-23T07:25:25.848Z,15.82
2018-05-23T07:26:25.628Z,15.75
2018-05-23T07:27:25.567Z,15.83
2018-05-23T07:28:25.494Z,15.72
2018-05-23T07:29:25.471Z,15.64
2018-05-23T07:30:25.423Z,15.64
2018-05-23T07:31:25.572Z,15.67
2018-05-23T07:32:25.394Z,15.68
2018-05-23T07:33:25.272Z,15.62
2018-05-23T07:34:25.242Z,15.57
2018-05-23T07:35:25.180Z,15.59
2018-05-23T07:36:25.154Z,15.55
2018-05-23T07:37:25.275Z,15.52
2018-05-23T07:38:25.064Z,15.49
2018-05-23T07:39:25.003Z,15.58
2018-05-23T07:40:24.976Z,15.52
2018-05-23T07:41:24.874Z,15.40
2018-05-23T07:42:24.825Z,15.44
2018-05-23T07:43:25.013Z,15.46
2018-05-23T07:44:24.774Z,15.49
2018-05-23T07:45:24.715Z,15.49
2018-05-23T07:46:24.654Z,15.49
2018-05-23T07:47:24.614Z,15.49
2018-05-23T07:48:24.555Z,15.47
2018-05-23T07:49:24.723Z,15.49
2018-05-23T07:50:24.477Z,15.44
2018-05-23T07:51:24.435Z,15.47
2018-05-23T07:52:24.385Z,15.47
2018-05-23T07:53:24.336Z,15.46
2018-05-23T07:54:24.293Z,15.46
2018-05-23T07:55:24.422Z,15.49
2018-05-23T07:56:24.182Z,15.42
2018-05-23T07:57:24.139Z,15.22
2018-05-23T07:58:24.101Z,15.22
2018-05-23T07:59:24.047Z,15.25
2018-05-23T08:00:23.990Z,15.19
2018-05-23T08:01:24.169Z,15.17
2018-05-23T08:02:23.889Z,15.09
2018-05-23T08:03:23.848Z,15.10
2018-05-23T08:04:23.815Z,15.07
2018-05-23T08:05:23.755Z,15.10
2018-05-23T08:06:23.703Z,15.03
2018-05-23T08:07:23.856Z,15.06
2018-05-23T08:08:24.162Z,15.00
2018-05-23T08:09:23.579Z,15.03
2018-05-23T08:10:23.538Z,15.17
2018-05-23T08:11:23.480Z,15.22
2018-05-23T08:12:23.434Z,15.24
2018-05-23T08:13:23.619Z,15.21
2018-05-23T08:14:23.358Z,15.24
2018-05-23T08:15:23.280Z,15.25
2018-05-23T08:16:23.255Z,15.18
2018-05-23T08:17:23.181Z,15.19
2018-05-23T08:18:23.132Z,15.07
2018-05-23T08:19:23.294Z,15.19
2018-05-23T08:20:23.052Z,15.19
2018-05-23T08:21:22.985Z,15.21
2018-05-23T08:22:22.946Z,15.27
2018-05-23T08:23:22.878Z,15.19
2018-05-23T08:24:22.949Z,15.24
2018-05-23T08:25:23.010Z,15.22
2018-05-23T08:26:22.748Z,15.18
2018-05-23T08:27:22.707Z,15.22
2018-05-23T08:28:22.658Z,15.35
2018-05-23T08:29:22.630Z,15.18
2018-05-23T08:30:22.576Z,15.17
2018-05-23T08:31:22.753Z,15.18
2018-05-23T08:32:22.483Z,15.11
2018-05-23T08:33:22.419Z,15.09
2018-05-23T08:34:22.384Z,15.06
2018-05-23T08:35:22.347Z,15.02
2018-05-23T08:36:22.330Z,15.17
2018-05-23T08:37:22.429Z,15.07
2018-05-23T08:38:22.178Z,15.17
2018-05-23T08:39:22.135Z,15.19
2018-05-23T08:40:22.118Z,15.09
2018-05-23T08:41:22.037Z,15.11
2018-05-23T08:42:22.000Z,15.14
2018-05-23T08:43:22.136Z,15.18
2018-05-23T08:44:21.897Z,15.21
2018-05-23T08:45:21.829Z,15.18
2018-05-23T08:46:21.816Z,15.15
2018-05-23T08:47:21.739Z,15.18
2018-05-23T08:48:21.711Z,15.17
2018-05-23T08:49:21.856Z,15.22
2018-05-23T08:50:21.626Z,15.11
2018-05-23T08:51:21.571Z,15.04
2018-05-23T08:52:21.525Z,15.09
2018-05-23T08:53:21.447Z,15.07
2018-05-23T08:54:21.431Z,15.11
2018-05-23T08:55:21.590Z,15.07
2018-05-23T08:56:21.336Z,15.07
2018-05-23T08:57:21.297Z,15.07
2018-05-23T08:58:21.218Z,15.10
2018-05-23T08:59:21.193Z,15.10
2018-05-23T09:00:21.130Z,15.06
2018-05-23T09:01:21.309Z,15.06
2018-05-23T09:02:21.045Z,15.06
2018-05-23T09:03:20.974Z,15.10
2018-05-23T09:04:20.966Z,15.07
2018-05-23T09:05:20.890Z,15.02
2018-05-23T09:06:20.875Z,14.81
2018-05-23T09:07:21.010Z,14.85
2018-05-23T09:08:20.737Z,14.96
2018-05-23T09:09:20.712Z,15.04
2018-05-23T09:10:20.680Z,15.07
2018-05-23T09:11:20.605Z,15.18
2018-05-23T09:12:20.605Z,15.15
2018-05-23T09:13:20.714Z,15.10
2018-05-23T09:14:20.449Z,15.15
2018-05-23T09:15:20.417Z,15.10
2018-05-23T09:16:20.375Z,15.24
2018-05-23T09:17:20.323Z,15.10
2018-05-23T09:18:20.308Z,15.11
2018-05-23T09:19:20.420Z,15.10
2018-05-23T09:20:20.203Z,15.03
2018-05-23T09:21:20.160Z,14.97
2018-05-23T09:22:20.099Z,15.10
2018-05-23T09:23:20.038Z,15.02
2018-05-23T09:24:20.001Z,15.03
2018-05-23T09:25:20.161Z,15.00
2018-05-23T09:26:19.921Z,15.07
2018-05-23T09:27:19.872Z,15.14
2018-05-23T09:28:19.825Z,14.88
2018-05-23T09:29:19.775Z,14.91
2018-05-23T09:30:19.699Z,14.92
2018-05-23T09:31:19.843Z,15.03
2018-05-23T09:32:19.703Z,14.88
2018-05-23T09:33:19.567Z,15.07
2018-05-23T09:34:19.515Z,14.99
2018-05-23T09:35:19.450Z,15.06
2018-05-23T09:36:19.403Z,15.10
2018-05-23T09:37:19.584Z,15.10
2018-05-23T09:38:19.339Z,15.09
2018-05-23T09:39:19.284Z,15.02
2018-05-23T09:40:19.226Z,15.09
2018-05-23T09:41:19.192Z,15.10
2018-05-23T09:42:19.131Z,15.11
2018-05-23T09:43:19.271Z,15.06
2018-05-23T09:44:19.034Z,15.18
2018-05-23T09:45:18.985Z,15.11
2018-05-23T09:46:18.927Z,15.11
2018-05-23T09:47:18.906Z,15.19
2018-05-23T09:48:18.845Z,15.17
2018-05-23T09:49:18.984Z,15.17
2018-05-23T09:50:18.778Z,15.19
2018-05-23T09:51:18.734Z,15.19
2018-05-23T09:52:18.655Z,15.11
2018-05-23T09:53:18.601Z,15.14
2018-05-23T09:54:18.559Z,15.21
2018-05-23T09:55:18.718Z,15.19
2018-05-23T09:56:18.485Z,15.24
2018-05-23T09:57:18.421Z,15.24
2018-05-23T09:58:18.394Z,15.24
2018-05-23T09:59:18.316Z,15.17
2018-05-23T10:00:18.271Z,15.22
2018-05-23T10:01:18.412Z,15.31
2018-05-23T10:02:18.206Z,15.18
2018-05-23T10:03:18.139Z,15.14
2018-05-23T10:04:18.090Z,15.17
2018-05-23T10:05:18.023Z,15.10
2018-05-23T10:06:18.020Z,15.17
2018-05-23T10:07:18.161Z,15.10
2018-05-23T10:08:17.900Z,14.91
2018-05-23T10:09:17.843Z,15.03
2018-05-23T10:10:17.825Z,15.02
2018-05-23T10:11:17.750Z,15.00
2018-05-23T10:12:17.715Z,15.04
2018-05-23T10:13:17.843Z,15.15
2018-05-23T10:14:17.597Z,15.09
2018-05-23T10:15:17.568Z,15.17
2018-05-23T10:16:17.539Z,15.18
2018-05-23T10:17:17.463Z,15.18
2018-05-23T10:18:17.403Z,15.22
2018-05-23T10:19:17.582Z,15.29
2018-05-23T10:20:17.314Z,15.33
2018-05-23T10:21:17.261Z,15.31
2018-05-23T10:22:17.816Z,15.33
2018-05-23T10:23:17.190Z,15.46
2018-05-23T10:24:17.145Z,15.49
2018-05-23T10:25:17.285Z,15.47
2018-05-23T10:26:17.105Z,15.54
2018-05-23T10:27:17.004Z,15.49
2018-05-23T10:28:16.966Z,15.46
2018-05-23T10:29:16.897Z,15.46
2018-05-23T10:30:16.859Z,15.40
2018-05-23T10:31:17.008Z,15.52
2018-05-23T10:32:16.737Z,15.46
2018-05-23T10:33:16.781Z,15.46
2018-05-23T10:34:16.640Z,15.46
2018-05-23T10:35:16.626Z,15.52
2018-05-23T10:36:16.565Z,15.46
2018-05-23T10:37:16.718Z,15.44
2018-05-23T10:38:16.482Z,15.42
2018-05-23T10:39:16.457Z,15.49
2018-05-23T10:40:16.390Z,15.51
2018-05-23T10:41:16.330Z,15.52
2018-05-23T10:42:16.282Z,15.54
2018-05-23T10:43:16.450Z,15.57
2018-05-23T10:44:16.173Z,15.57
2018-05-23T10:45:16.153Z,15.54
2018-05-23T10:46:16.193Z,15.54
2018-05-23T10:47:16.057Z,15.61
2018-05-23T10:48:16.000Z,15.58
2018-05-23T10:49:16.148Z,15.58
2018-05-23T10:50:15.932Z,15.57
2018-05-23T10:51:15.856Z,15.64
2018-05-23T10:52:15.809Z,15.61
2018-05-23T10:53:15.757Z,15.67
2018-05-23T10:54:15.746Z,15.65
2018-05-23T10:55:15.882Z,15.70
2018-05-23T10:56:15.620Z,15.64
2018-05-23T10:57:15.744Z,15.76
2018-05-23T10:58:15.539Z,15.70
2018-05-23T10:59:15.481Z,15.68
2018-05-23T11:00:15.527Z,15.65
2018-05-23T11:01:15.603Z,15.75
2018-05-23T11:02:15.377Z,15.62
2018-05-23T11:03:15.291Z,15.65
2018-05-23T11:04:15.245Z,15.55
2018-05-23T11:05:15.199Z,15.67
2018-05-23T11:06:15.146Z,15.77
2018-05-23T11:07:15.287Z,15.82
2018-05-23T11:08:15.068Z,15.83
2018-05-23T11:09:15.008Z,16.01
2018-05-23T11:10:14.962Z,16.23
2018-05-23T11:11:14.920Z,16.41
2018-05-23T11:12:14.869Z,16.42
2018-05-23T11:13:15.057Z,16.47
2018-05-23T11:14:14.800Z,16.57
2018-05-23T11:15:14.840Z,16.51
2018-05-23T11:16:14.712Z,16.68
2018-05-23T11:17:14.656Z,16.68
2018-05-23T11:18:14.612Z,16.79
2018-05-23T11:19:14.758Z,16.84
2018-05-23T11:20:14.551Z,16.75
2018-05-23T11:21:14.464Z,16.64
2018-05-23T11:22:14.431Z,16.76
2018-05-23T11:23:14.384Z,16.71
2018-05-23T11:24:14.342Z,16.72
2018-05-23T11:25:14.480Z,16.72
2018-05-23T11:26:14.228Z,16.84
2018-05-23T11:27:14.177Z,16.64
2018-05-23T11:28:14.144Z,16.64
2018-05-23T11:29:14.110Z,16.58
2018-05-23T11:30:14.067Z,16.58
2018-05-23T11:31:14.201Z,16.66
2018-05-23T11:32:13.973Z,16.68
2018-05-23T11:33:13.927Z,16.71
2018-05-23T11:34:13.867Z,16.75
2018-05-23T11:35:13.825Z,16.74
2018-05-23T11:36:13.782Z,16.91
2018-05-23T11:37:13.936Z,16.86
2018-05-23T11:38:13.673Z,16.83
2018-05-23T11:39:13.646Z,16.86
2018-05-23T11:40:13.595Z,16.83
2018-05-23T11:41:13.555Z,16.76
2018-05-23T11:42:13.519Z,16.74
2018-05-23T11:43:13.669Z,16.74
2018-05-23T11:44:13.453Z,16.72
2018-05-23T11:45:13.358Z,16.72
2018-05-23T11:46:13.336Z,16.75
2018-05-23T11:47:13.269Z,16.65
2018-05-23T11:48:13.279Z,16.56
2018-05-23T11:49:13.467Z,16.69
2018-05-23T11:50:13.134Z,16.74
2018-05-23T11:51:13.088Z,16.83
2018-05-23T11:52:13.091Z,16.84
2018-05-23T11:53:12.981Z,16.89
2018-05-23T11:54:12.974Z,16.74
2018-05-23T11:55:13.097Z,16.72
2018-05-23T11:56:12.861Z,16.61
2018-05-23T11:57:12.812Z,16.66
2018-05-23T11:58:12.769Z,16.65
2018-05-23T11:59:12.734Z,16.66
2018-05-23T12:00:12.672Z,16.69
2018-05-23T12:01:12.854Z,16.75
2018-05-23T12:02:12.574Z,16.74
2018-05-23T12:03:12.551Z,16.69
2018-05-23T12:04:12.475Z,16.64
2018-05-23T12:05:12.456Z,16.64
2018-05-23T12:06:12.417Z,16.72
2018-05-23T12:07:12.562Z,16.79
2018-05-23T12:08:12.291Z,16.79
2018-05-23T12:09:12.265Z,16.84
2018-05-23T12:10:12.237Z,16.78
2018-05-23T12:11:12.181Z,16.83
2018-05-23T12:12:12.120Z,16.79
2018-05-23T12:13:12.268Z,16.76
2018-05-23T12:14:12.025Z,16.72
2018-05-23T12:15:11.967Z,16.74
2018-05-23T12:16:11.921Z,16.76
2018-05-23T12:17:11.875Z,16.74
2018-05-23T12:18:11.842Z,16.72
2018-05-23T12:19:12.009Z,16.72
2018-05-23T12:20:11.758Z,16.76
2018-05-23T12:21:11.709Z,16.72
2018-05-23T12:22:11.690Z,16.66
2018-05-23T12:23:11.623Z,16.83
2018-05-23T12:24:11.567Z,16.83
2018-05-23T12:25:11.748Z,16.84
2018-05-23T12:26:11.510Z,16.84
2018-05-23T12:27:11.425Z,16.86
2018-05-23T12:28:11.389Z,16.90
2018-05-23T12:29:11.337Z,16.97
2018-05-23T12:30:11.289Z,17.08
2018-05-23T12:31:11.442Z,17.11
2018-05-23T12:32:11.220Z,17.02
2018-05-23T12:33:11.153Z,17.09
2018-05-23T12:34:11.106Z,17.11
2018-05-23T12:35:11.073Z,17.05
2018-05-23T12:36:11.029Z,17.20
2018-05-23T12:37:11.180Z,17.27
2018-05-23T12:38:10.926Z,17.33
2018-05-23T12:39:10.889Z,17.36
2018-05-23T12:40:10.818Z,17.36
2018-05-23T12:41:10.786Z,17.31
2018-05-23T12:42:10.734Z,17.39
2018-05-23T12:43:10.896Z,17.33
2018-05-23T12:44:10.648Z,17.36
2018-05-23T12:45:10.630Z,17.41
2018-05-23T12:46:10.581Z,17.33
2018-05-23T12:47:10.524Z,17.30
2018-05-23T12:48:10.482Z,17.34
2018-05-23T12:49:10.621Z,17.54
2018-05-23T12:50:10.362Z,17.64
2018-05-23T12:51:10.329Z,17.45
2018-05-23T12:52:10.273Z,17.63